sensor_id;sensor_type;location;lat;lon;timestamp;pressure;altitude;pressure_sealevel;temperature;humidity
72798;BME280;61084;55.816;37.036;2024-03-06T00:01:04;100641.88;;;-2.75;54.96
72798;BME280;61084;55.816;37.036;2024-03-06T00:03:30;100646.00;;;-2.82;55.06
72798;BME280;61084;55.816;37.036;2024-03-06T00:05:56;100651.03;;;-2.86;54.93
72798;BME280;61084;55.816;37.036;2024-03-06T00:08:22;100644.88;;;-2.96;55.25
72798;BME280;61084;55.816;37.036;2024-03-06T00:10:48;100646.50;;;-2.99;55.31
72798;BME280;61084;55.816;37.036;2024-03-06T00:13:14;100641.22;;;-3.07;55.25
72798;BME280;61084;55.816;37.036;2024-03-06T00:15:40;100653.19;;;-3.06;55.26
72798;BME280;61084;55.816;37.036;2024-03-06T00:18:06;100646.34;;;-3.07;55.24
72798;BME280;61084;55.816;37.036;2024-03-06T00:20:31;100651.44;;;-3.09;54.99
72798;BME280;61084;55.816;37.036;2024-03-06T00:22:57;100653.94;;;-3.12;55.22
72798;BME280;61084;55.816;37.036;2024-03-06T00:25:25;100645.16;;;-3.21;55.08
72798;BME280;61084;55.816;37.036;2024-03-06T00:27:51;100654.53;;;-3.23;55.25
72798;BME280;61084;55.816;37.036;2024-03-06T00:30:17;100651.84;;;-3.29;55.28
72798;BME280;61084;55.816;37.036;2024-03-06T00:32:43;100657.75;;;-3.32;55.34
72798;BME280;61084;55.816;37.036;2024-03-06T00:35:08;100649.88;;;-3.39;55.44
72798;BME280;61084;55.816;37.036;2024-03-06T00:37:34;100648.94;;;-3.43;55.44
72798;BME280;61084;55.816;37.036;2024-03-06T00:40:00;100645.41;;;-3.48;55.51
72798;BME280;61084;55.816;37.036;2024-03-06T00:42:26;100648.78;;;-3.50;55.55
72798;BME280;61084;55.816;37.036;2024-03-06T00:44:52;100648.72;;;-3.52;55.55
72798;BME280;61084;55.816;37.036;2024-03-06T00:47:18;100644.41;;;-3.54;55.23
72798;BME280;61084;55.816;37.036;2024-03-06T00:49:43;100648.59;;;-3.58;55.34
72798;BME280;61084;55.816;37.036;2024-03-06T00:52:09;100652.03;;;-3.57;55.58
72798;BME280;61084;55.816;37.036;2024-03-06T00:54:35;100639.13;;;-3.60;55.50
72798;BME280;61084;55.816;37.036;2024-03-06T00:57:01;100639.13;;;-3.60;55.54
72798;BME280;61084;55.816;37.036;2024-03-06T00:59:27;100635.69;;;-3.61;55.53
72798;BME280;61084;55.816;37.036;2024-03-06T01:01:54;100635.69;;;-3.61;55.61
72798;BME280;61084;55.816;37.036;2024-03-06T01:04:23;100634.84;;;-3.61;55.49
72798;BME280;61084;55.816;37.036;2024-03-06T01:06:48;100629.63;;;-3.64;55.44
72798;BME280;61084;55.816;37.036;2024-03-06T01:09:15;100632.09;;;-3.69;55.52
72798;BME280;61084;55.816;37.036;2024-03-06T01:11:41;100633.63;;;-3.75;55.51
72798;BME280;61084;55.816;37.036;2024-03-06T01:14:07;100631.91;;;-3.76;55.64
72798;BME280;61084;55.816;37.036;2024-03-06T01:16:33;100636.22;;;-3.74;55.47
72798;BME280;61084;55.816;37.036;2024-03-06T01:18:58;100633.66;;;-3.74;55.53
72798;BME280;61084;55.816;37.036;2024-03-06T01:21:24;100642.22;;;-3.73;55.43
72798;BME280;61084;55.816;37.036;2024-03-06T01:23:50;100639.66;;;-3.73;55.50
72798;BME280;61084;55.816;37.036;2024-03-06T01:26:16;100642.00;;;-3.83;55.37
72798;BME280;61084;55.816;37.036;2024-03-06T01:28:42;100638.41;;;-3.91;55.46
72798;BME280;61084;55.816;37.036;2024-03-06T01:31:08;100646.88;;;-3.93;55.54
72798;BME280;61084;55.816;37.036;2024-03-06T01:33:35;100647.72;;;-3.94;55.39
72798;BME280;61084;55.816;37.036;2024-03-06T01:36:01;100651.09;;;-3.95;55.43
72798;BME280;61084;55.816;37.036;2024-03-06T01:38:27;100647.53;;;-4.00;55.50
72798;BME280;61084;55.816;37.036;2024-03-06T01:40:53;100647.53;;;-4.02;55.45
72798;BME280;61084;55.816;37.036;2024-03-06T01:43:23;100642.38;;;-4.02;55.31
72798;BME280;61084;55.816;37.036;2024-03-06T01:45:51;100651.78;;;-4.02;55.39
72798;BME280;61084;55.816;37.036;2024-03-06T01:48:23;100645.81;;;-4.01;55.30
72798;BME280;61084;55.816;37.036;2024-03-06T01:50:53;100647.53;;;-4.02;55.28
72798;BME280;61084;55.816;37.036;2024-03-06T01:53:22;100650.09;;;-4.02;55.39
72798;BME280;61084;55.816;37.036;2024-03-06T01:55:50;100654.28;;;-4.05;55.35
72798;BME280;61084;55.816;37.036;2024-03-06T01:58:17;100655.84;;;-4.10;55.17
72798;BME280;61084;55.816;37.036;2024-03-06T02:00:43;100661.72;;;-4.14;55.39
72798;BME280;61084;55.816;37.036;2024-03-06T02:03:11;100657.41;;;-4.15;55.45
72798;BME280;61084;55.816;37.036;2024-03-06T02:05:37;100659.06;;;-4.17;55.35
72798;BME280;61084;55.816;37.036;2024-03-06T02:08:04;100665.03;;;-4.18;55.31
72798;BME280;61084;55.816;37.036;2024-03-06T02:10:31;100657.31;;;-4.20;55.47
72798;BME280;61084;55.816;37.036;2024-03-06T02:12:57;100658.91;;;-4.23;55.17
72798;BME280;61084;55.816;37.036;2024-03-06T02:15:23;100667.34;;;-4.27;55.27
72798;BME280;61084;55.816;37.036;2024-03-06T02:17:49;100656.97;;;-4.33;55.37
72798;BME280;61084;55.816;37.036;2024-03-06T02:20:16;100656.84;;;-4.36;55.29
72798;BME280;61084;55.816;37.036;2024-03-06T02:22:42;100658.50;;;-4.38;55.30
72798;BME280;61084;55.816;37.036;2024-03-06T02:25:08;100650.69;;;-4.43;55.31
72798;BME280;61084;55.816;37.036;2024-03-06T02:27:34;100662.56;;;-4.46;55.37
72798;BME280;61084;55.816;37.036;2024-03-06T02:30:00;100663.25;;;-4.52;55.02
72798;BME280;61084;55.816;37.036;2024-03-06T02:32:27;100663.84;;;-4.62;54.91
72798;BME280;61084;55.816;37.036;2024-03-06T02:34:53;100656.88;;;-4.68;55.02
72798;BME280;61084;55.816;37.036;2024-03-06T02:37:19;100654.19;;;-4.72;55.27
72798;BME280;61084;55.816;37.036;2024-03-06T02:39:45;100659.19;;;-4.75;55.08
72798;BME280;61084;55.816;37.036;2024-03-06T02:42:11;100661.72;;;-4.77;55.22
72798;BME280;61084;55.816;37.036;2024-03-06T02:44:36;100668.50;;;-4.79;55.32
72798;BME280;61084;55.816;37.036;2024-03-06T02:47:03;100665.72;;;-4.86;55.41
72798;BME280;61084;55.816;37.036;2024-03-06T02:49:29;100674.94;;;-4.91;55.31
72798;BME280;61084;55.816;37.036;2024-03-06T02:51:55;100675.69;;;-4.95;55.35
72798;BME280;61084;55.816;37.036;2024-03-06T02:54:21;100692.72;;;-4.96;55.51
72798;BME280;61084;55.816;37.036;2024-03-06T02:56:47;100686.66;;;-4.99;55.50
72798;BME280;61084;55.816;37.036;2024-03-06T02:59:12;100699.28;;;-5.05;55.38
72798;BME280;61084;55.816;37.036;2024-03-06T03:01:39;100703.31;;;-5.13;55.42
72798;BME280;61084;55.816;37.036;2024-03-06T03:04:05;100694.59;;;-5.18;55.28
72798;BME280;61084;55.816;37.036;2024-03-06T03:06:33;100707.25;;;-5.23;55.53
72798;BME280;61084;55.816;37.036;2024-03-06T03:08:58;100711.44;;;-5.26;56.05
72798;BME280;61084;55.816;37.036;2024-03-06T03:11:24;100708.78;;;-5.28;56.03
72798;BME280;61084;55.816;37.036;2024-03-06T03:13:50;100718.88;;;-5.32;56.12
72798;BME280;61084;55.816;37.036;2024-03-06T03:16:17;100711.88;;;-5.40;56.06
72798;BME280;61084;55.816;37.036;2024-03-06T03:18:44;100713.50;;;-5.42;56.64
72798;BME280;61084;55.816;37.036;2024-03-06T03:21:10;100716.69;;;-5.49;56.71
72798;BME280;61084;55.816;37.036;2024-03-06T03:23:37;100711.38;;;-5.55;56.68
72798;BME280;61084;55.816;37.036;2024-03-06T03:26:03;100715.63;;;-5.55;56.58
72798;BME280;61084;55.816;37.036;2024-03-06T03:28:29;100711.28;;;-5.58;56.56
72798;BME280;61084;55.816;37.036;2024-03-06T03:30:55;100715.50;;;-5.58;56.68
72798;BME280;61084;55.816;37.036;2024-03-06T03:33:22;100719.69;;;-5.60;57.04
72798;BME280;61084;55.816;37.036;2024-03-06T03:35:48;100714.47;;;-5.63;57.07
72798;BME280;61084;55.816;37.036;2024-03-06T03:38:14;100720.47;;;-5.63;56.90
72798;BME280;61084;55.816;37.036;2024-03-06T03:40:40;100719.66;;;-5.62;56.77
72798;BME280;61084;55.816;37.036;2024-03-06T03:43:06;100729.75;;;-5.66;57.01
72798;BME280;61084;55.816;37.036;2024-03-06T03:45:32;100725.22;;;-5.73;56.80
72798;BME280;61084;55.816;37.036;2024-03-06T03:48:01;100721.72;;;-5.77;57.05
72798;BME280;61084;55.816;37.036;2024-03-06T03:50:28;100720.84;;;-5.77;56.78
72798;BME280;61084;55.816;37.036;2024-03-06T03:52:55;100712.25;;;-5.79;57.05
72798;BME280;61084;55.816;37.036;2024-03-06T03:55:24;100713.94;;;-5.80;56.81
72798;BME280;61084;55.816;37.036;2024-03-06T03:57:53;100713.91;;;-5.81;57.04
72798;BME280;61084;55.816;37.036;2024-03-06T04:00:19;100715.56;;;-5.82;57.06
72798;BME280;61084;55.816;37.036;2024-03-06T04:02:45;100721.56;;;-5.81;56.94
72798;BME280;61084;55.816;37.036;2024-03-06T04:05:12;100714.69;;;-5.84;56.85
72798;BME280;61084;55.816;37.036;2024-03-06T04:07:38;100720.66;;;-5.83;56.74
72798;BME280;61084;55.816;37.036;2024-03-06T04:10:04;100713.72;;;-5.87;56.70
72798;BME280;61084;55.816;37.036;2024-03-06T04:12:30;100720.53;;;-5.88;56.56
72798;BME280;61084;55.816;37.036;2024-03-06T04:14:56;100714.50;;;-5.90;56.76
72798;BME280;61084;55.816;37.036;2024-03-06T04:17:22;100722.22;;;-5.88;56.78
72798;BME280;61084;55.816;37.036;2024-03-06T04:19:48;100720.59;;;-5.85;56.66
72798;BME280;61084;55.816;37.036;2024-03-06T04:22:14;100718.88;;;-5.86;56.65
72798;BME280;61084;55.816;37.036;2024-03-06T04:24:44;100714.66;;;-5.85;56.99
72798;BME280;61084;55.816;37.036;2024-03-06T04:27:10;100716.38;;;-5.84;57.07
72798;BME280;61084;55.816;37.036;2024-03-06T04:29:36;100711.25;;;-5.84;56.49
72798;BME280;61084;55.816;37.036;2024-03-06T04:32:02;100716.38;;;-5.84;56.55
72798;BME280;61084;55.816;37.036;2024-03-06T04:34:28;100719.75;;;-5.85;56.81
72798;BME280;61084;55.816;37.036;2024-03-06T04:36:53;100715.41;;;-5.88;56.67
72798;BME280;61084;55.816;37.036;2024-03-06T04:39:19;100724.00;;;-5.86;56.44
72798;BME280;61084;55.816;37.036;2024-03-06T04:41:45;100713.84;;;-5.83;56.51
72798;BME280;61084;55.816;37.036;2024-03-06T04:44:11;100718.28;;;-5.77;56.31
72798;BME280;61084;55.816;37.036;2024-03-06T04:46:37;100714.09;;;-5.75;56.50
72798;BME280;61084;55.816;37.036;2024-03-06T04:49:03;100721.97;;;-5.69;56.43
72798;BME280;61084;55.816;37.036;2024-03-06T04:51:29;100715.16;;;-5.69;56.35
72798;BME280;61084;55.816;37.036;2024-03-06T04:53:54;100723.91;;;-5.62;56.31
72798;BME280;61084;55.816;37.036;2024-03-06T04:56:20;100713.72;;;-5.61;56.39
72798;BME280;61084;55.816;37.036;2024-03-06T04:58:47;100712.22;;;-5.54;56.38
72798;BME280;61084;55.816;37.036;2024-03-06T05:01:13;100722.66;;;-5.48;56.06
72798;BME280;61084;55.816;37.036;2024-03-06T05:03:39;100716.69;;;-5.49;56.34
72798;BME280;61084;55.816;37.036;2024-03-06T05:06:06;100715.84;;;-5.48;56.11
72798;BME280;61084;55.816;37.036;2024-03-06T05:08:31;100719.38;;;-5.44;56.50
72798;BME280;61084;55.816;37.036;2024-03-06T05:11:00;100718.69;;;-5.39;56.32
72798;BME280;61084;55.816;37.036;2024-03-06T05:13:26;100723.91;;;-5.36;56.49
72798;BME280;61084;55.816;37.036;2024-03-06T05:15:52;100715.53;;;-5.31;56.26
72798;BME280;61084;55.816;37.036;2024-03-06T05:18:20;100723.41;;;-5.24;56.11
72798;BME280;61084;55.816;37.036;2024-03-06T05:20:46;100723.72;;;-5.15;56.34
72798;BME280;61084;55.816;37.036;2024-03-06T05:23:12;100729.09;;;-5.06;55.99
72798;BME280;61084;55.816;37.036;2024-03-06T05:25:40;100736.13;;;-5.00;55.90
72798;BME280;61084;55.816;37.036;2024-03-06T05:28:06;100727.59;;;-4.99;55.87
72798;BME280;61084;55.816;37.036;2024-03-06T05:30:32;100726.94;;;-4.94;55.99
72798;BME280;61084;55.816;37.036;2024-03-06T05:32:58;100726.38;;;-4.84;55.86
72798;BME280;61084;55.816;37.036;2024-03-06T05:35:24;100724.03;;;-4.76;55.81
72798;BME280;61084;55.816;37.036;2024-03-06T05:37:50;100716.59;;;-4.69;55.76
72798;BME280;61084;55.816;37.036;2024-03-06T05:40:16;100722.88;;;-4.57;55.57
72798;BME280;61084;55.816;37.036;2024-03-06T05:42:43;100731.78;;;-4.45;56.06
72798;BME280;61084;55.816;37.036;2024-03-06T05:45:09;100724.25;;;-4.39;55.59
72798;BME280;61084;55.816;37.036;2024-03-06T05:47:37;100735.53;;;-4.32;55.12
72798;BME280;61084;55.816;37.036;2024-03-06T05:50:07;100734.84;;;-4.27;55.15
72798;BME280;61084;55.816;37.036;2024-03-06T05:52:33;100729.13;;;-4.18;55.18
72798;BME280;61084;55.816;37.036;2024-03-06T05:55:00;100736.09;;;-4.13;54.41
72798;BME280;61084;55.816;37.036;2024-03-06T05:57:25;100731.09;;;-4.08;54.87
72798;BME280;61084;55.816;37.036;2024-03-06T05:59:52;100738.84;;;-4.07;54.13
72798;BME280;61084;55.816;37.036;2024-03-06T06:02:18;100736.28;;;-4.07;54.33
72798;BME280;61084;55.816;37.036;2024-03-06T06:04:45;100731.16;;;-4.07;54.09
72798;BME280;61084;55.816;37.036;2024-03-06T06:07:11;100723.25;;;-4.13;54.23
72798;BME280;61084;55.816;37.036;2024-03-06T06:09:37;100730.81;;;-4.17;53.92
72798;BME280;61084;55.816;37.036;2024-03-06T06:12:03;100728.63;;;-4.05;53.88
72798;BME280;61084;55.816;37.036;2024-03-06T06:14:29;100730.59;;;-3.94;54.09
72798;BME280;61084;55.816;37.036;2024-03-06T06:16:56;100725.03;;;-3.79;54.06
72798;BME280;61084;55.816;37.036;2024-03-06T06:19:22;100727.72;;;-3.74;53.78
72798;BME280;61084;55.816;37.036;2024-03-06T06:21:48;100738.94;;;-3.69;53.26
72798;BME280;61084;55.816;37.036;2024-03-06T06:24:14;100737.50;;;-3.58;53.17
72798;BME280;61084;55.816;37.036;2024-03-06T06:26:40;100733.66;;;-3.41;53.21
72798;BME280;61084;55.816;37.036;2024-03-06T06:29:24;100739.88;;;-3.32;53.68
72798;BME280;61084;55.816;37.036;2024-03-06T06:31:50;100740.75;;;-3.31;53.04
72798;BME280;61084;55.816;37.036;2024-03-06T06:34:16;100743.47;;;-3.25;52.96
72798;BME280;61084;55.816;37.036;2024-03-06T06:37:00;100743.59;;;-3.19;52.80
72798;BME280;61084;55.816;37.036;2024-03-06T06:39:26;100751.53;;;-3.10;53.23
72798;BME280;61084;55.816;37.036;2024-03-06T06:41:52;100743.00;;;-3.09;52.79
72798;BME280;61084;55.816;37.036;2024-03-06T06:44:18;100740.56;;;-3.03;53.13
72798;BME280;61084;55.816;37.036;2024-03-06T06:46:44;100746.59;;;-3.02;53.08
72798;BME280;61084;55.816;37.036;2024-03-06T06:49:10;100749.31;;;-2.95;52.57
72798;BME280;61084;55.816;37.036;2024-03-06T06:51:35;100745.25;;;-2.85;52.91
72798;BME280;61084;55.816;37.036;2024-03-06T06:54:01;100747.19;;;-2.75;53.24
72798;BME280;61084;55.816;37.036;2024-03-06T06:56:30;100751.66;;;-2.65;52.84
72798;BME280;61084;55.816;37.036;2024-03-06T06:58:56;100747.63;;;-2.56;52.87
72798;BME280;61084;55.816;37.036;2024-03-06T07:01:22;100751.06;;;-2.54;52.29
72798;BME280;61084;55.816;37.036;2024-03-06T07:03:48;100754.59;;;-2.50;52.07
72798;BME280;61084;55.816;37.036;2024-03-06T07:06:13;100754.63;;;-2.49;51.77
72798;BME280;61084;55.816;37.036;2024-03-06T07:08:39;100750.53;;;-2.39;52.11
72798;BME280;61084;55.816;37.036;2024-03-06T07:11:05;100748.13;;;-2.30;52.18
72798;BME280;61084;55.816;37.036;2024-03-06T07:13:31;100746.50;;;-2.26;51.75
72798;BME280;61084;55.816;37.036;2024-03-06T07:15:57;100744.06;;;-2.20;51.38
72798;BME280;61084;55.816;37.036;2024-03-06T07:18:46;100748.44;;;-2.15;51.93
72798;BME280;61084;55.816;37.036;2024-03-06T07:21:15;100756.34;;;-2.04;51.82
72798;BME280;61084;55.816;37.036;2024-03-06T07:23:41;100752.25;;;-1.95;51.69
72798;BME280;61084;55.816;37.036;2024-03-06T07:26:07;100751.56;;;-1.88;51.93
72798;BME280;61084;55.816;37.036;2024-03-06T07:28:33;100759.41;;;-1.80;52.11
72798;BME280;61084;55.816;37.036;2024-03-06T07:31:03;100755.19;;;-1.77;51.55
72798;BME280;61084;55.816;37.036;2024-03-06T07:33:53;100754.31;;;-1.77;51.57
72798;BME280;61084;55.816;37.036;2024-03-06T07:36:20;100753.41;;;-1.79;51.02
72798;BME280;61084;55.816;37.036;2024-03-06T07:38:46;100759.38;;;-1.82;51.51
72798;BME280;61084;55.816;37.036;2024-03-06T07:41:12;100755.13;;;-1.80;51.35
72798;BME280;61084;55.816;37.036;2024-03-06T07:43:38;100757.84;;;-1.72;51.30
72798;BME280;61084;55.816;37.036;2024-03-06T07:46:04;100756.13;;;-1.72;49.39
72798;BME280;61084;55.816;37.036;2024-03-06T07:48:42;100763.81;;;-1.73;50.25
72798;BME280;61084;55.816;37.036;2024-03-06T07:51:10;100759.63;;;-1.68;51.01
72798;BME280;61084;55.816;37.036;2024-03-06T07:53:36;100762.31;;;-1.62;50.84
72798;BME280;61084;55.816;37.036;2024-03-06T07:56:03;100763.28;;;-1.54;50.86
72798;BME280;61084;55.816;37.036;2024-03-06T07:58:29;100761.69;;;-1.49;49.81
72798;BME280;61084;55.816;37.036;2024-03-06T08:00:55;100758.22;;;-1.49;50.02
72798;BME280;61084;55.816;37.036;2024-03-06T08:03:22;100760.00;;;-1.45;50.14
72798;BME280;61084;55.816;37.036;2024-03-06T08:05:53;100763.44;;;-1.48;50.41
72798;BME280;61084;55.816;37.036;2024-03-06T08:08:19;100762.63;;;-1.44;50.25
72798;BME280;61084;55.816;37.036;2024-03-06T08:10:45;100763.69;;;-1.33;50.72
72798;BME280;61084;55.816;37.036;2024-03-06T08:13:11;100766.34;;;-1.27;50.09
72798;BME280;61084;55.816;37.036;2024-03-06T08:15:37;100765.66;;;-1.17;50.36
72798;BME280;61084;55.816;37.036;2024-03-06T08:18:03;100764.09;;;-1.07;49.06
72798;BME280;61084;55.816;37.036;2024-03-06T08:23:14;100760.97;;;-0.87;49.08
72798;BME280;61084;55.816;37.036;2024-03-06T08:25:39;100761.91;;;-0.80;49.27
72798;BME280;61084;55.816;37.036;2024-03-06T08:28:05;100767.19;;;-0.74;49.61
72798;BME280;61084;55.816;37.036;2024-03-06T08:30:32;100756.88;;;-0.74;48.37
72798;BME280;61084;55.816;37.036;2024-03-06T08:32:58;100756.13;;;-0.65;49.74
72798;BME280;61084;55.816;37.036;2024-03-06T08:35:24;100759.47;;;-0.71;50.02
72798;BME280;61084;55.816;37.036;2024-03-06T08:37:50;100760.28;;;-0.73;48.08
72798;BME280;61084;55.816;37.036;2024-03-06T08:40:17;100758.72;;;-0.64;47.72
72798;BME280;61084;55.816;37.036;2024-03-06T08:42:44;100746.75;;;-0.59;47.25
72798;BME280;61084;55.816;37.036;2024-03-06T08:45:11;100752.00;;;-0.53;46.47
72798;BME280;61084;55.816;37.036;2024-03-06T08:47:37;100752.06;;;-0.47;48.22
72798;BME280;61084;55.816;37.036;2024-03-06T08:50:03;100750.50;;;-0.34;47.58
72798;BME280;61084;55.816;37.036;2024-03-06T08:52:30;100755.91;;;-0.16;47.75
72798;BME280;61084;55.816;37.036;2024-03-06T08:55:03;100746.56;;;-0.05;47.73
72798;BME280;61084;55.816;37.036;2024-03-06T08:57:35;100742.34;;;0.05;47.40
72798;BME280;61084;55.816;37.036;2024-03-06T09:00:02;100744.97;;;0.06;47.77
72798;BME280;61084;55.816;37.036;2024-03-06T09:02:30;100739.88;;;0.11;46.48
72798;BME280;61084;55.816;37.036;2024-03-06T09:04:56;100745.13;;;0.24;46.84
72798;BME280;61084;55.816;37.036;2024-03-06T09:07:22;100740.94;;;0.34;46.83
72798;BME280;61084;55.816;37.036;2024-03-06T09:09:52;100746.22;;;0.43;47.61
72798;BME280;61084;55.816;37.036;2024-03-06T09:12:18;100728.22;;;0.55;46.76
72798;BME280;61084;55.816;37.036;2024-03-06T09:14:44;100736.94;;;0.63;47.98
72798;BME280;61084;55.816;37.036;2024-03-06T09:17:10;100736.94;;;0.63;47.44
72798;BME280;61084;55.816;37.036;2024-03-06T09:19:38;100725.78;;;0.73;46.65
72798;BME280;61084;55.816;37.036;2024-03-06T09:22:04;100731.94;;;0.89;47.09
72798;BME280;61084;55.816;37.036;2024-03-06T09:24:30;100728.59;;;1.02;46.49
72798;BME280;61084;55.816;37.036;2024-03-06T09:26:56;100730.38;;;1.13;47.40
72798;BME280;61084;55.816;37.036;2024-03-06T09:29:22;100727.78;;;1.13;45.87
72798;BME280;61084;55.816;37.036;2024-03-06T09:31:48;100725.28;;;1.24;45.88
72798;BME280;61084;55.816;37.036;2024-03-06T09:34:14;100721.91;;;1.32;45.92
72798;BME280;61084;55.816;37.036;2024-03-06T09:36:49;100724.50;;;1.38;46.33
72798;BME280;61084;55.816;37.036;2024-03-06T09:39:17;100717.63;;;1.39;43.01
72798;BME280;61084;55.816;37.036;2024-03-06T09:41:46;100724.47;;;1.34;45.87
72798;BME280;61084;55.816;37.036;2024-03-06T09:44:14;100718.44;;;1.35;44.44
72798;BME280;61084;55.816;37.036;2024-03-06T09:46:43;100721.97;;;1.47;47.11
72798;BME280;61084;55.816;37.036;2024-03-06T09:49:11;100719.34;;;1.38;45.04
72798;BME280;61084;55.816;37.036;2024-03-06T09:51:39;100714.16;;;1.40;43.67
72798;BME280;61084;55.816;37.036;2024-03-06T09:54:11;100713.38;;;1.50;45.95
72798;BME280;61084;55.816;37.036;2024-03-06T09:56:39;100718.56;;;1.56;46.09
72798;BME280;61084;55.816;37.036;2024-03-06T09:59:04;100703.91;;;1.61;45.96
72798;BME280;61084;55.816;37.036;2024-03-06T10:01:31;100715.13;;;1.59;45.93
72798;BME280;61084;55.816;37.036;2024-03-06T10:03:58;100709.94;;;1.57;45.35
72798;BME280;61084;55.816;37.036;2024-03-06T10:06:24;100709.09;;;1.57;44.38
72798;BME280;61084;55.816;37.036;2024-03-06T10:08:50;100709.94;;;1.60;42.30
72798;BME280;61084;55.816;37.036;2024-03-06T10:11:17;100708.25;;;1.67;45.42
72798;BME280;61084;55.816;37.036;2024-03-06T10:13:43;100699.69;;;1.78;45.65
72798;BME280;61084;55.816;37.036;2024-03-06T10:16:09;100695.38;;;1.80;44.15
72798;BME280;61084;55.816;37.036;2024-03-06T10:18:36;100694.50;;;1.80;43.55
72798;BME280;61084;55.816;37.036;2024-03-06T10:21:04;100698.78;;;1.81;43.92
72798;BME280;61084;55.816;37.036;2024-03-06T10:23:31;100696.25;;;1.87;42.61
72798;BME280;61084;55.816;37.036;2024-03-06T10:25:57;100693.69;;;2.02;43.57
72798;BME280;61084;55.816;37.036;2024-03-06T10:28:23;100698.03;;;2.16;43.65
72798;BME280;61084;55.816;37.036;2024-03-06T10:30:50;100696.31;;;2.21;46.56
72798;BME280;61084;55.816;37.036;2024-03-06T10:33:18;100699.72;;;2.07;45.59
72798;BME280;61084;55.816;37.036;2024-03-06T10:35:46;100693.66;;;1.87;45.75
72798;BME280;61084;55.816;37.036;2024-03-06T10:38:14;100691.84;;;1.68;44.48
72798;BME280;61084;55.816;37.036;2024-03-06T10:40:42;100690.94;;;1.52;43.42
72798;BME280;61084;55.816;37.036;2024-03-06T10:43:09;100690.06;;;1.47;42.54
72798;BME280;61084;55.816;37.036;2024-03-06T10:48:13;100691.81;;;1.56;44.07
72798;BME280;61084;55.816;37.036;2024-03-06T10:50:40;100688.38;;;1.57;44.08
72798;BME280;61084;55.816;37.036;2024-03-06T10:53:10;100687.50;;;1.53;42.91
72798;BME280;61084;55.816;37.036;2024-03-06T10:55:37;100682.38;;;1.61;42.16
72798;BME280;61084;55.816;37.036;2024-03-06T10:58:07;100672.91;;;1.75;41.79
72798;BME280;61084;55.816;37.036;2024-03-06T11:00:36;100679.84;;;1.86;44.31
72798;BME280;61084;55.816;37.036;2024-03-06T11:03:05;100672.06;;;1.89;43.51
72798;BME280;61084;55.816;37.036;2024-03-06T11:05:35;100678.16;;;1.91;43.14
72798;BME280;61084;55.816;37.036;2024-03-06T11:08:02;100675.56;;;2.05;42.47
72798;BME280;61084;55.816;37.036;2024-03-06T11:10:33;100681.63;;;2.14;43.35
72798;BME280;61084;55.816;37.036;2024-03-06T11:12:59;100673.03;;;2.26;43.07
72798;BME280;61084;55.816;37.036;2024-03-06T11:15:26;100677.31;;;2.27;43.30
72798;BME280;61084;55.816;37.036;2024-03-06T11:17:51;100669.53;;;2.28;42.79
72798;BME280;61084;55.816;37.036;2024-03-06T11:20:21;100666.97;;;2.32;43.64
72798;BME280;61084;55.816;37.036;2024-03-06T11:28:40;100662.66;;;2.32;41.52
72798;BME280;61084;55.816;37.036;2024-03-06T11:31:09;100654.88;;;2.35;43.08
72798;BME280;61084;55.816;37.036;2024-03-06T11:33:46;100661.81;;;2.39;42.29
72798;BME280;61084;55.816;37.036;2024-03-06T11:39:06;100657.44;;;2.82;41.32
72798;BME280;61084;55.816;37.036;2024-03-06T11:44:18;100640.94;;;3.10;41.88
72798;BME280;61084;55.816;37.036;2024-03-06T11:46:48;100644.41;;;3.15;40.54
72798;BME280;61084;55.816;37.036;2024-03-06T11:49:16;100644.38;;;3.18;40.52
72798;BME280;61084;55.816;37.036;2024-03-06T11:51:51;100639.22;;;3.20;41.51
72798;BME280;61084;55.816;37.036;2024-03-06T11:54:18;100639.19;;;3.23;41.19
72798;BME280;61084;55.816;37.036;2024-03-06T11:56:50;100640.94;;;3.19;41.88
72798;BME280;61084;55.816;37.036;2024-03-06T11:59:17;100627.91;;;3.31;41.02
72798;BME280;61084;55.816;37.036;2024-03-06T12:01:44;100632.19;;;3.38;41.09
72798;BME280;61084;55.816;37.036;2024-03-06T12:04:10;100626.97;;;3.47;41.30
72798;BME280;61084;55.816;37.036;2024-03-06T12:06:38;100620.84;;;3.60;41.05
72798;BME280;61084;55.816;37.036;2024-03-06T12:09:04;100626.00;;;3.63;39.24
72798;BME280;61084;55.816;37.036;2024-03-06T12:11:30;100627.78;;;3.60;36.70
72798;BME280;61084;55.816;37.036;2024-03-06T12:13:57;100615.66;;;3.57;40.02
72798;BME280;61084;55.816;37.036;2024-03-06T12:16:23;100616.53;;;3.58;40.03
72798;BME280;61084;55.816;37.036;2024-03-06T12:18:56;100611.34;;;3.61;40.72
72798;BME280;61084;55.816;37.036;2024-03-06T12:21:29;100615.75;;;3.42;39.97
72798;BME280;61084;55.816;37.036;2024-03-06T12:24:08;100618.34;;;3.38;39.81
72798;BME280;61084;55.816;37.036;2024-03-06T12:26:34;100615.72;;;3.50;39.04
72798;BME280;61084;55.816;37.036;2024-03-06T12:29:10;100611.25;;;3.73;38.26
72798;BME280;61084;55.816;37.036;2024-03-06T12:31:38;100606.88;;;3.83;40.00
72798;BME280;61084;55.816;37.036;2024-03-06T12:34:05;100607.66;;;3.95;40.86
72798;BME280;61084;55.816;37.036;2024-03-06T12:36:32;100601.63;;;3.90;39.87
72798;BME280;61084;55.816;37.036;2024-03-06T12:38:59;100599.81;;;3.98;37.66
72798;BME280;61084;55.816;37.036;2024-03-06T12:41:26;100598.97;;;3.96;39.40
72798;BME280;61084;55.816;37.036;2024-03-06T12:43:52;100603.31;;;4.00;39.26
72798;BME280;61084;55.816;37.036;2024-03-06T12:46:19;100592.84;;;4.08;38.54
72798;BME280;61084;55.816;37.036;2024-03-06T12:48:45;100592.81;;;4.09;40.02
72798;BME280;61084;55.816;37.036;2024-03-06T12:51:11;100592.88;;;4.06;37.09
72798;BME280;61084;55.816;37.036;2024-03-06T12:53:37;100591.97;;;4.10;38.74
72798;BME280;61084;55.816;37.036;2024-03-06T12:56:03;100581.63;;;4.03;36.92
72798;BME280;61084;55.816;37.036;2024-03-06T12:58:29;100587.63;;;4.09;37.69